sensor_id;sensor_type;location;lat;lon;timestamp;temperature;humidity
14995;DHT22;7593;49.006;8.372;2023-05-07T00:00:21;16.10;99.90
14995;DHT22;7593;49.006;8.372;2023-05-07T00:02:48;16.00;99.90
14995;DHT22;7593;49.006;8.372;2023-05-07T00:05:15;16.00;99.90
14995;DHT22;7593;49.006;8.372;2023-05-07T00:07:42;15.90;99.90
14995;DHT22;7593;49.006;8.372;2023-05-07T00:10:10;15.90;99.90
14995;DHT22;7593;49.006;8.372;2023-05-07T00:15:07;15.80;99.90
14995;DHT22;7593;49.006;8.372;2023-05-07T00:17:33;15.80;99.90
14995;DHT22;7593;49.006;8.372;2023-05-07T00:20:00;15.80;99.90
14995;DHT22;7593;49.006;8.372;2023-05-07T00:22:28;15.80;99.90
14995;DHT22;7593;49.006;8.372;2023-05-07T00:24:55;15.70;99.90
14995;DHT22;7593;49.006;8.372;2023-05-07T00:27:22;15.70;99.90
14995;DHT22;7593;49.006;8.372;2023-05-07T00:29:50;15.60;99.90
14995;DHT22;7593;49.006;8.372;2023-05-07T00:32:17;15.60;99.90
14995;DHT22;7593;49.006;8.372;2023-05-07T00:34:44;15.60;99.90
14995;DHT22;7593;49.006;8.372;2023-05-07T00:37:11;15.60;99.90
14995;DHT22;7593;49.006;8.372;2023-05-07T00:39:37;15.60;99.90
14995;DHT22;7593;49.006;8.372;2023-05-07T00:42:04;15.60;99.90
14995;DHT22;7593;49.006;8.372;2023-05-07T00:44:31;15.60;99.90
14995;DHT22;7593;49.006;8.372;2023-05-07T00:47:02;15.60;99.90
14995;DHT22;7593;49.006;8.372;2023-05-07T00:49:37;15.50;99.90
14995;DHT22;7593;49.006;8.372;2023-05-07T00:52:06;15.60;99.90
14995;DHT22;7593;49.006;8.372;2023-05-07T00:54:34;15.50;99.90
14995;DHT22;7593;49.006;8.372;2023-05-07T00:57:02;15.50;99.90
14995;DHT22;7593;49.006;8.372;2023-05-07T00:59:30;15.40;99.90
14995;DHT22;7593;49.006;8.372;2023-05-07T01:01:59;15.40;99.90
14995;DHT22;7593;49.006;8.372;2023-05-07T01:04:26;15.40;99.90
14995;DHT22;7593;49.006;8.372;2023-05-07T01:06:55;15.30;99.90
14995;DHT22;7593;49.006;8.372;2023-05-07T01:09:23;15.20;99.90
14995;DHT22;7593;49.006;8.372;2023-05-07T01:11:50;15.20;99.90
14995;DHT22;7593;49.006;8.372;2023-05-07T01:14:18;15.10;99.90
14995;DHT22;7593;49.006;8.372;2023-05-07T01:16:46;15.00;99.90
14995;DHT22;7593;49.006;8.372;2023-05-07T01:19:17;15.00;99.90
14995;DHT22;7593;49.006;8.372;2023-05-07T01:21:46;14.90;99.90
14995;DHT22;7593;49.006;8.372;2023-05-07T01:24:15;14.90;99.90
14995;DHT22;7593;49.006;8.372;2023-05-07T01:26:42;14.80;99.90
14995;DHT22;7593;49.006;8.372;2023-05-07T01:29:09;14.80;99.90
14995;DHT22;7593;49.006;8.372;2023-05-07T01:31:36;14.80;99.90
14995;DHT22;7593;49.006;8.372;2023-05-07T01:34:04;14.70;99.90
14995;DHT22;7593;49.006;8.372;2023-05-07T01:36:31;14.80;99.90
14995;DHT22;7593;49.006;8.372;2023-05-07T01:38:59;14.70;99.90
14995;DHT22;7593;49.006;8.372;2023-05-07T01:41:27;14.70;99.90
14995;DHT22;7593;49.006;8.372;2023-05-07T01:43:55;14.70;99.90
14995;DHT22;7593;49.006;8.372;2023-05-07T01:46:23;14.60;99.90
14995;DHT22;7593;49.006;8.372;2023-05-07T01:48:51;14.70;99.90
14995;DHT22;7593;49.006;8.372;2023-05-07T01:51:18;14.60;99.90
14995;DHT22;7593;49.006;8.372;2023-05-07T01:53:45;14.60;99.90
14995;DHT22;7593;49.006;8.372;2023-05-07T01:56:16;14.50;99.90
14995;DHT22;7593;49.006;8.372;2023-05-07T01:58:45;14.50;99.90
14995;DHT22;7593;49.006;8.372;2023-05-07T02:01:12;14.50;99.90
14995;DHT22;7593;49.006;8.372;2023-05-07T02:03:39;14.50;99.90
14995;DHT22;7593;49.006;8.372;2023-05-07T02:06:06;14.50;99.90
14995;DHT22;7593;49.006;8.372;2023-05-07T02:08:33;14.40;99.90
14995;DHT22;7593;49.006;8.372;2023-05-07T02:10:59;14.40;99.90
14995;DHT22;7593;49.006;8.372;2023-05-07T02:13:28;14.30;99.90
14995;DHT22;7593;49.006;8.372;2023-05-07T02:15:57;14.30;99.90
14995;DHT22;7593;49.006;8.372;2023-05-07T02:18:23;14.30;99.90
14995;DHT22;7593;49.006;8.372;2023-05-07T02:20:50;14.30;99.90
14995;DHT22;7593;49.006;8.372;2023-05-07T02:23:17;14.30;99.90
14995;DHT22;7593;49.006;8.372;2023-05-07T02:25:44;14.20;99.90
14995;DHT22;7593;49.006;8.372;2023-05-07T02:28:11;14.30;99.90
14995;DHT22;7593;49.006;8.372;2023-05-07T02:30:38;14.20;99.90
14995;DHT22;7593;49.006;8.372;2023-05-07T02:33:06;14.20;99.90
14995;DHT22;7593;49.006;8.372;2023-05-07T02:35:33;14.10;99.90
14995;DHT22;7593;49.006;8.372;2023-05-07T02:38:00;14.10;99.90
14995;DHT22;7593;49.006;8.372;2023-05-07T02:40:27;14.10;99.90
14995;DHT22;7593;49.006;8.372;2023-05-07T02:42:55;14.00;99.90
14995;DHT22;7593;49.006;8.372;2023-05-07T02:45:21;14.00;99.90
14995;DHT22;7593;49.006;8.372;2023-05-07T02:47:48;14.00;99.90
14995;DHT22;7593;49.006;8.372;2023-05-07T02:50:16;14.00;99.90
14995;DHT22;7593;49.006;8.372;2023-05-07T02:52:43;13.90;99.90
14995;DHT22;7593;49.006;8.372;2023-05-07T02:55:10;13.90;99.90
14995;DHT22;7593;49.006;8.372;2023-05-07T02:57:37;13.90;99.90
14995;DHT22;7593;49.006;8.372;2023-05-07T03:00:11;13.90;99.90
14995;DHT22;7593;49.006;8.372;2023-05-07T03:02:38;13.90;99.90
14995;DHT22;7593;49.006;8.372;2023-05-07T03:05:06;13.90;99.90
14995;DHT22;7593;49.006;8.372;2023-05-07T03:07:34;14.00;99.90
14995;DHT22;7593;49.006;8.372;2023-05-07T03:10:01;14.00;99.90
14995;DHT22;7593;49.006;8.372;2023-05-07T03:12:28;14.00;99.90
14995;DHT22;7593;49.006;8.372;2023-05-07T03:14:55;14.00;99.90
14995;DHT22;7593;49.006;8.372;2023-05-07T03:17:21;14.00;99.90
14995;DHT22;7593;49.006;8.372;2023-05-07T03:19:48;14.00;99.90
14995;DHT22;7593;49.006;8.372;2023-05-07T03:22:15;13.90;99.90
14995;DHT22;7593;49.006;8.372;2023-05-07T03:24:43;13.90;99.90
14995;DHT22;7593;49.006;8.372;2023-05-07T03:27:10;13.80;99.90
14995;DHT22;7593;49.006;8.372;2023-05-07T03:29:36;13.80;99.90
14995;DHT22;7593;49.006;8.372;2023-05-07T03:32:04;13.70;99.90
14995;DHT22;7593;49.006;8.372;2023-05-07T03:34:31;13.70;99.90
14995;DHT22;7593;49.006;8.372;2023-05-07T03:36:58;13.70;99.90
14995;DHT22;7593;49.006;8.372;2023-05-07T03:39:24;13.70;99.90
14995;DHT22;7593;49.006;8.372;2023-05-07T03:41:52;13.60;99.90
14995;DHT22;7593;49.006;8.372;2023-05-07T03:44:19;13.60;99.90
14995;DHT22;7593;49.006;8.372;2023-05-07T03:46:46;13.60;99.90
14995;DHT22;7593;49.006;8.372;2023-05-07T03:49:13;13.50;99.90
14995;DHT22;7593;49.006;8.372;2023-05-07T03:51:39;13.50;99.90
14995;DHT22;7593;49.006;8.372;2023-05-07T03:54:06;13.50;99.90
14995;DHT22;7593;49.006;8.372;2023-05-07T03:56:33;13.50;99.90
14995;DHT22;7593;49.006;8.372;2023-05-07T03:59:02;13.50;99.90
14995;DHT22;7593;49.006;8.372;2023-05-07T04:01:29;13.50;99.90
14995;DHT22;7593;49.006;8.372;2023-05-07T04:03:55;13.40;99.90
14995;DHT22;7593;49.006;8.372;2023-05-07T04:06:22;13.40;99.90
14995;DHT22;7593;49.006;8.372;2023-05-07T04:08:49;13.40;99.90
14995;DHT22;7593;49.006;8.372;2023-05-07T04:11:16;13.40;99.90
14995;DHT22;7593;49.006;8.372;2023-05-07T04:13:43;13.40;99.90
14995;DHT22;7593;49.006;8.372;2023-05-07T04:16:11;13.40;99.90
14995;DHT22;7593;49.006;8.372;2023-05-07T04:18:38;13.40;99.90
14995;DHT22;7593;49.006;8.372;2023-05-07T04:21:05;13.40;99.90
14995;DHT22;7593;49.006;8.372;2023-05-07T04:23:31;13.30;99.90
14995;DHT22;7593;49.006;8.372;2023-05-07T04:25:58;13.30;99.90
14995;DHT22;7593;49.006;8.372;2023-05-07T04:28:26;13.30;99.90
14995;DHT22;7593;49.006;8.372;2023-05-07T04:30:53;13.30;99.90
14995;DHT22;7593;49.006;8.372;2023-05-07T04:33:21;13.30;99.90
14995;DHT22;7593;49.006;8.372;2023-05-07T04:35:47;13.30;99.90
14995;DHT22;7593;49.006;8.372;2023-05-07T04:38:14;13.30;99.90
14995;DHT22;7593;49.006;8.372;2023-05-07T04:40:42;13.30;99.90
14995;DHT22;7593;49.006;8.372;2023-05-07T04:43:09;13.30;99.90
14995;DHT22;7593;49.006;8.372;2023-05-07T04:45:35;13.30;99.90
14995;DHT22;7593;49.006;8.372;2023-05-07T04:48:02;13.30;99.90
14995;DHT22;7593;49.006;8.372;2023-05-07T04:50:31;13.30;99.90
14995;DHT22;7593;49.006;8.372;2023-05-07T04:52:57;13.30;99.90
14995;DHT22;7593;49.006;8.372;2023-05-07T04:55:24;13.30;99.90
14995;DHT22;7593;49.006;8.372;2023-05-07T04:57:52;13.40;99.90
14995;DHT22;7593;49.006;8.372;2023-05-07T05:00:19;13.40;99.90
14995;DHT22;7593;49.006;8.372;2023-05-07T05:02:46;13.40;99.90
14995;DHT22;7593;49.006;8.372;2023-05-07T05:05:13;13.40;99.90
14995;DHT22;7593;49.006;8.372;2023-05-07T05:07:41;13.40;99.90
14995;DHT22;7593;49.006;8.372;2023-05-07T05:10:08;13.50;99.90
14995;DHT22;7593;49.006;8.372;2023-05-07T05:12:35;13.50;99.90
14995;DHT22;7593;49.006;8.372;2023-05-07T05:15:03;13.60;99.90
14995;DHT22;7593;49.006;8.372;2023-05-07T05:17:29;13.60;99.90
14995;DHT22;7593;49.006;8.372;2023-05-07T05:19:56;13.70;99.90
14995;DHT22;7593;49.006;8.372;2023-05-07T05:22:23;13.70;99.90
14995;DHT22;7593;49.006;8.372;2023-05-07T05:24:52;13.80;99.90
14995;DHT22;7593;49.006;8.372;2023-05-07T05:27:19;13.90;99.90
14995;DHT22;7593;49.006;8.372;2023-05-07T05:29:46;14.00;99.90
14995;DHT22;7593;49.006;8.372;2023-05-07T05:32:12;14.00;99.90
14995;DHT22;7593;49.006;8.372;2023-05-07T05:34:39;14.10;99.90
14995;DHT22;7593;49.006;8.372;2023-05-07T05:37:06;14.20;99.90
14995;DHT22;7593;49.006;8.372;2023-05-07T05:39:33;14.30;99.90
14995;DHT22;7593;49.006;8.372;2023-05-07T05:42:01;14.30;99.90
14995;DHT22;7593;49.006;8.372;2023-05-07T05:44:28;14.40;99.90
14995;DHT22;7593;49.006;8.372;2023-05-07T05:46:54;14.50;99.90
14995;DHT22;7593;49.006;8.372;2023-05-07T05:49:23;14.60;99.90
14995;DHT22;7593;49.006;8.372;2023-05-07T05:51:49;14.70;99.90
14995;DHT22;7593;49.006;8.372;2023-05-07T05:54:16;14.80;99.90
14995;DHT22;7593;49.006;8.372;2023-05-07T05:56:43;14.90;99.90
14995;DHT22;7593;49.006;8.372;2023-05-07T05:59:11;14.90;99.90
14995;DHT22;7593;49.006;8.372;2023-05-07T06:01:38;15.00;99.90
14995;DHT22;7593;49.006;8.372;2023-05-07T06:04:05;15.10;99.90
14995;DHT22;7593;49.006;8.372;2023-05-07T06:06:32;15.10;99.90
14995;DHT22;7593;49.006;8.372;2023-05-07T06:08:58;15.10;99.90
14995;DHT22;7593;49.006;8.372;2023-05-07T06:11:25;15.10;99.90
14995;DHT22;7593;49.006;8.372;2023-05-07T06:13:52;15.20;99.90
14995;DHT22;7593;49.006;8.372;2023-05-07T06:16:20;15.30;99.90
14995;DHT22;7593;49.006;8.372;2023-05-07T06:18:47;15.60;99.90
14995;DHT22;7593;49.006;8.372;2023-05-07T06:21:14;15.90;99.90
14995;DHT22;7593;49.006;8.372;2023-05-07T06:23:41;16.10;99.90
14995;DHT22;7593;49.006;8.372;2023-05-07T06:26:07;16.40;99.90
14995;DHT22;7593;49.006;8.372;2023-05-07T06:28:34;16.50;99.90
14995;DHT22;7593;49.006;8.372;2023-05-07T06:31:12;16.60;99.90
14995;DHT22;7593;49.006;8.372;2023-05-07T06:33:41;16.80;99.90
14995;DHT22;7593;49.006;8.372;2023-05-07T06:36:08;16.90;99.90
14995;DHT22;7593;49.006;8.372;2023-05-07T06:38:35;16.90;99.90
14995;DHT22;7593;49.006;8.372;2023-05-07T06:41:02;17.00;99.90
14995;DHT22;7593;49.006;8.372;2023-05-07T06:43:29;17.10;99.90
14995;DHT22;7593;49.006;8.372;2023-05-07T06:45:56;17.40;99.90
14995;DHT22;7593;49.006;8.372;2023-05-07T06:48:23;17.70;99.90
14995;DHT22;7593;49.006;8.372;2023-05-07T06:50:51;17.90;99.90
14995;DHT22;7593;49.006;8.372;2023-05-07T06:53:18;18.00;99.90
14995;DHT22;7593;49.006;8.372;2023-05-07T06:55:45;18.20;99.90
14995;DHT22;7593;49.006;8.372;2023-05-07T06:58:15;18.30;99.90
14995;DHT22;7593;49.006;8.372;2023-05-07T07:00:41;18.50;99.90
14995;DHT22;7593;49.006;8.372;2023-05-07T07:03:08;18.80;99.90
14995;DHT22;7593;49.006;8.372;2023-05-07T07:05:35;19.20;99.90
14995;DHT22;7593;49.006;8.372;2023-05-07T07:08:04;19.50;99.90
14995;DHT22;7593;49.006;8.372;2023-05-07T07:10:31;19.80;99.90
14995;DHT22;7593;49.006;8.372;2023-05-07T07:12:57;20.30;99.90
14995;DHT22;7593;49.006;8.372;2023-05-07T07:15:25;20.60;99.90
14995;DHT22;7593;49.006;8.372;2023-05-07T07:17:52;21.00;99.90
14995;DHT22;7593;49.006;8.372;2023-05-07T07:20:19;21.10;99.90
14995;DHT22;7593;49.006;8.372;2023-05-07T07:22:46;21.20;99.90
14995;DHT22;7593;49.006;8.372;2023-05-07T07:25:14;21.20;99.90
14995;DHT22;7593;49.006;8.372;2023-05-07T07:27:41;21.20;99.90
14995;DHT22;7593;49.006;8.372;2023-05-07T07:30:08;20.60;99.90
14995;DHT22;7593;49.006;8.372;2023-05-07T07:32:35;20.60;99.90
14995;DHT22;7593;49.006;8.372;2023-05-07T07:35:02;20.60;99.90
14995;DHT22;7593;49.006;8.372;2023-05-07T07:37:30;20.80;99.90
14995;DHT22;7593;49.006;8.372;2023-05-07T07:39:57;21.00;99.90
14995;DHT22;7593;49.006;8.372;2023-05-07T07:42:25;21.10;99.90
14995;DHT22;7593;49.006;8.372;2023-05-07T07:44:52;21.20;99.90
14995;DHT22;7593;49.006;8.372;2023-05-07T07:47:19;20.80;99.90
14995;DHT22;7593;49.006;8.372;2023-05-07T07:49:45;20.70;99.90
14995;DHT22;7593;49.006;8.372;2023-05-07T07:52:12;20.70;99.90
14995;DHT22;7593;49.006;8.372;2023-05-07T07:54:39;20.70;99.90
14995;DHT22;7593;49.006;8.372;2023-05-07T07:57:06;20.80;99.90
14995;DHT22;7593;49.006;8.372;2023-05-07T07:59:34;21.00;99.90
14995;DHT22;7593;49.006;8.372;2023-05-07T08:02:00;21.20;99.90
14995;DHT22;7593;49.006;8.372;2023-05-07T08:04:27;21.40;99.90
14995;DHT22;7593;49.006;8.372;2023-05-07T08:06:55;21.40;99.90
14995;DHT22;7593;49.006;8.372;2023-05-07T08:09:23;21.50;99.90
14995;DHT22;7593;49.006;8.372;2023-05-07T08:11:50;21.80;99.90
14995;DHT22;7593;49.006;8.372;2023-05-07T08:14:16;22.00;99.90
14995;DHT22;7593;49.006;8.372;2023-05-07T08:16:44;22.40;99.90
14995;DHT22;7593;49.006;8.372;2023-05-07T08:19:11;22.70;99.90
14995;DHT22;7593;49.006;8.372;2023-05-07T08:21:39;23.00;99.90
14995;DHT22;7593;49.006;8.372;2023-05-07T08:24:06;22.90;99.90
14995;DHT22;7593;49.006;8.372;2023-05-07T08:26:33;22.90;99.90
14995;DHT22;7593;49.006;8.372;2023-05-07T08:29:01;22.70;99.90
14995;DHT22;7593;49.006;8.372;2023-05-07T08:31:28;23.00;99.90
14995;DHT22;7593;49.006;8.372;2023-05-07T08:33:56;23.40;99.90
14995;DHT22;7593;49.006;8.372;2023-05-07T08:36:23;23.60;99.90
14995;DHT22;7593;49.006;8.372;2023-05-07T08:38:51;23.60;99.90
14995;DHT22;7593;49.006;8.372;2023-05-07T08:41:18;23.80;99.90
14995;DHT22;7593;49.006;8.372;2023-05-07T08:43:47;23.80;99.90
14995;DHT22;7593;49.006;8.372;2023-05-07T08:46:17;24.20;99.90
14995;DHT22;7593;49.006;8.372;2023-05-07T08:48:44;24.30;99.90
14995;DHT22;7593;49.006;8.372;2023-05-07T08:51:15;23.60;99.90
14995;DHT22;7593;49.006;8.372;2023-05-07T08:53:42;23.60;99.90
14995;DHT22;7593;49.006;8.372;2023-05-07T08:56:10;23.80;99.90
14995;DHT22;7593;49.006;8.372;2023-05-07T08:58:37;23.90;99.90
14995;DHT22;7593;49.006;8.372;2023-05-07T09:01:08;24.10;99.90
14995;DHT22;7593;49.006;8.372;2023-05-07T09:03:36;24.20;99.90
14995;DHT22;7593;49.006;8.372;2023-05-07T09:06:04;24.20;99.90
14995;DHT22;7593;49.006;8.372;2023-05-07T09:08:34;24.40;99.90
14995;DHT22;7593;49.006;8.372;2023-05-07T09:11:02;24.40;99.90
14995;DHT22;7593;49.006;8.372;2023-05-07T09:13:29;24.30;99.90
14995;DHT22;7593;49.006;8.372;2023-05-07T09:15:56;24.50;99.90
14995;DHT22;7593;49.006;8.372;2023-05-07T09:18:24;24.70;99.90
14995;DHT22;7593;49.006;8.372;2023-05-07T09:20:50;24.70;99.90
14995;DHT22;7593;49.006;8.372;2023-05-07T09:23:17;25.00;99.90
14995;DHT22;7593;49.006;8.372;2023-05-07T09:25:45;25.30;99.90
14995;DHT22;7593;49.006;8.372;2023-05-07T09:28:12;25.50;99.90
14995;DHT22;7593;49.006;8.372;2023-05-07T09:30:39;25.30;99.90
14995;DHT22;7593;49.006;8.372;2023-05-07T09:33:06;25.10;99.90
14995;DHT22;7593;49.006;8.372;2023-05-07T09:35:32;25.20;99.90
14995;DHT22;7593;49.006;8.372;2023-05-07T09:38:00;25.50;99.90
14995;DHT22;7593;49.006;8.372;2023-05-07T09:40:28;25.20;99.90
14995;DHT22;7593;49.006;8.372;2023-05-07T09:43:09;25.20;99.90
14995;DHT22;7593;49.006;8.372;2023-05-07T09:45:36;25.40;99.90
14995;DHT22;7593;49.006;8.372;2023-05-07T09:48:05;25.80;99.90
14995;DHT22;7593;49.006;8.372;2023-05-07T09:50:36;26.30;99.90
14995;DHT22;7593;49.006;8.372;2023-05-07T09:53:03;26.70;99.90
14995;DHT22;7593;49.006;8.372;2023-05-07T09:55:30;26.80;99.90
14995;DHT22;7593;49.006;8.372;2023-05-07T09:57:59;26.90;99.90
14995;DHT22;7593;49.006;8.372;2023-05-07T10:00:29;26.90;99.90
14995;DHT22;7593;49.006;8.372;2023-05-07T10:02:57;27.30;99.90
14995;DHT22;7593;49.006;8.372;2023-05-07T10:05:25;27.20;99.90
14995;DHT22;7593;49.006;8.372;2023-05-07T10:07:53;26.70;99.90
14995;DHT22;7593;49.006;8.372;2023-05-07T10:10:24;26.70;99.90
14995;DHT22;7593;49.006;8.372;2023-05-07T10:12:51;27.00;99.90
14995;DHT22;7593;49.006;8.372;2023-05-07T10:15:21;26.90;99.90
14995;DHT22;7593;49.006;8.372;2023-05-07T10:17:50;26.60;99.90
14995;DHT22;7593;49.006;8.372;2023-05-07T10:20:18;26.60;99.90
14995;DHT22;7593;49.006;8.372;2023-05-07T10:22:47;26.70;99.90
14995;DHT22;7593;49.006;8.372;2023-05-07T10:25:16;26.90;99.90
14995;DHT22;7593;49.006;8.372;2023-05-07T10:27:45;27.20;99.90
14995;DHT22;7593;49.006;8.372;2023-05-07T10:30:21;27.30;99.90
14995;DHT22;7593;49.006;8.372;2023-05-07T10:32:53;27.80;99.90
14995;DHT22;7593;49.006;8.372;2023-05-07T10:35:23;27.70;99.30
14995;DHT22;7593;49.006;8.372;2023-05-07T10:37:51;28.00;99.30
14995;DHT22;7593;49.006;8.372;2023-05-07T10:40:18;28.20;99.20
14995;DHT22;7593;49.006;8.372;2023-05-07T10:42:57;28.10;99.20
14995;DHT22;7593;49.006;8.372;2023-05-07T10:45:27;28.10;98.90
14995;DHT22;7593;49.006;8.372;2023-05-07T10:48:07;27.70;99.60
14995;DHT22;7593;49.006;8.372;2023-05-07T10:50:34;27.80;99.90
14995;DHT22;7593;49.006;8.372;2023-05-07T10:53:24;27.70;99.20
14995;DHT22;7593;49.006;8.372;2023-05-07T10:56:24;28.00;98.50
14995;DHT22;7593;49.006;8.372;2023-05-07T10:58:52;28.50;98.30
14995;DHT22;7593;49.006;8.372;2023-05-07T11:01:50;28.50;97.90
14995;DHT22;7593;49.006;8.372;2023-05-07T11:04:18;28.70;97.70
14995;DHT22;7593;49.006;8.372;2023-05-07T11:07:24;28.90;97.10
14995;DHT22;7593;49.006;8.372;2023-05-07T11:09:59;29.20;96.60
14995;DHT22;7593;49.006;8.372;2023-05-07T11:12:49;29.50;95.90
14995;DHT22;7593;49.006;8.372;2023-05-07T11:15:33;29.40;95.70
14995;DHT22;7593;49.006;8.372;2023-05-07T11:18:01;29.00;96.00
14995;DHT22;7593;49.006;8.372;2023-05-07T11:20:48;28.90;96.30
14995;DHT22;7593;49.006;8.372;2023-05-07T11:23:56;28.90;95.90
14995;DHT22;7593;49.006;8.372;2023-05-07T11:26:24;28.60;96.10
14995;DHT22;7593;49.006;8.372;2023-05-07T11:28:52;28.30;96.20
14995;DHT22;7593;49.006;8.372;2023-05-07T11:31:23;28.40;96.60
14995;DHT22;7593;49.006;8.372;2023-05-07T11:33:53;28.80;96.50
14995;DHT22;7593;49.006;8.372;2023-05-07T11:36:22;29.10;95.50
14995;DHT22;7593;49.006;8.372;2023-05-07T11:38:48;29.10;95.70
14995;DHT22;7593;49.006;8.372;2023-05-07T11:41:16;29.50;95.50
14995;DHT22;7593;49.006;8.372;2023-05-07T11:43:58;29.90;94.70
14995;DHT22;7593;49.006;8.372;2023-05-07T11:46:28;30.40;94.40
14995;DHT22;7593;49.006;8.372;2023-05-07T11:48:56;31.00;93.70
14995;DHT22;7593;49.006;8.372;2023-05-07T11:51:24;31.40;93.30
14995;DHT22;7593;49.006;8.372;2023-05-07T11:53:53;31.60;92.50
14995;DHT22;7593;49.006;8.372;2023-05-07T11:56:20;31.70;92.30
14995;DHT22;7593;49.006;8.372;2023-05-07T11:58:48;31.50;92.40
14995;DHT22;7593;49.006;8.372;2023-05-07T12:01:17;31.60;92.30
14995;DHT22;7593;49.006;8.372;2023-05-07T12:03:45;31.90;91.90
14995;DHT22;7593;49.006;8.372;2023-05-07T12:06:15;31.80;91.70
14995;DHT22;7593;49.006;8.372;2023-05-07T12:08:43;31.20;91.80
14995;DHT22;7593;49.006;8.372;2023-05-07T12:11:13;30.40;92.20
14995;DHT22;7593;49.006;8.372;2023-05-07T12:13:41;29.90;92.70
14995;DHT22;7593;49.006;8.372;2023-05-07T12:16:11;29.60;93.40
14995;DHT22;7593;49.006;8.372;2023-05-07T12:18:39;29.60;93.50
14995;DHT22;7593;49.006;8.372;2023-05-07T12:21:07;29.90;93.50
14995;DHT22;7593;49.006;8.372;2023-05-07T12:23:36;30.40;93.10
14995;DHT22;7593;49.006;8.372;2023-05-07T12:26:03;30.40;92.90
14995;DHT22;7593;49.006;8.372;2023-05-07T12:28:36;29.90;93.30
14995;DHT22;7593;49.006;8.372;2023-05-07T12:31:04;29.60;93.70
14995;DHT22;7593;49.006;8.372;2023-05-07T12:33:35;29.30;94.00
14995;DHT22;7593;49.006;8.372;2023-05-07T12:36:06;29.10;94.30
14995;DHT22;7593;49.006;8.372;2023-05-07T12:38:38;28.80;94.80
14995;DHT22;7593;49.006;8.372;2023-05-07T12:41:07;28.50;95.10
14995;DHT22;7593;49.006;8.372;2023-05-07T12:43:34;28.00;95.70
14995;DHT22;7593;49.006;8.372;2023-05-07T12:46:03;27.80;96.10
14995;DHT22;7593;49.006;8.372;2023-05-07T12:48:30;27.40;96.60
14995;DHT22;7593;49.006;8.372;2023-05-07T12:50:58;27.00;96.90
14995;DHT22;7593;49.006;8.372;2023-05-07T12:53:26;26.90;97.40
14995;DHT22;7593;49.006;8.372;2023-05-07T12:55:56;26.70;97.80
14995;DHT22;7593;49.006;8.372;2023-05-07T12:58:25;26.50;97.80
14995;DHT22;7593;49.006;8.372;2023-05-07T13:00:53;26.30;98.10
14995;DHT22;7593;49.006;8.372;2023-05-07T13:03:24;26.30;98.70
14995;DHT22;7593;49.006;8.372;2023-05-07T13:05:55;26.30;98.40
14995;DHT22;7593;49.006;8.372;2023-05-07T13:08:29;26.30;98.40
14995;DHT22;7593;49.006;8.372;2023-05-07T13:10:59;26.60;98.10
14995;DHT22;7593;49.006;8.372;2023-05-07T13:13:29;27.10;97.20
14995;DHT22;7593;49.006;8.372;2023-05-07T13:15:55;27.50;97.40
14995;DHT22;7593;49.006;8.372;2023-05-07T13:18:24;27.40;97.20
14995;DHT22;7593;49.006;8.372;2023-05-07T13:20:51;27.30;97.80
14995;DHT22;7593;49.006;8.372;2023-05-07T13:23:19;27.20;98.10
14995;DHT22;7593;49.006;8.372;2023-05-07T13:25:46;27.00;98.50
14995;DHT22;7593;49.006;8.372;2023-05-07T13:28:14;27.20;98.40
14995;DHT22;7593;49.006;8.372;2023-05-07T13:30:41;27.50;97.60
14995;DHT22;7593;49.006;8.372;2023-05-07T13:33:08;27.60;96.90
14995;DHT22;7593;49.006;8.372;2023-05-07T13:35:35;27.50;97.20
14995;DHT22;7593;49.006;8.372;2023-05-07T13:38:03;27.50;97.40
14995;DHT22;7593;49.006;8.372;2023-05-07T13:40:29;27.40;97.20
14995;DHT22;7593;49.006;8.372;2023-05-07T13:42:57;27.30;97.30
14995;DHT22;7593;49.006;8.372;2023-05-07T13:45:26;27.00;97.30
14995;DHT22;7593;49.006;8.372;2023-05-07T13:47:55;26.60;97.60
14995;DHT22;7593;49.006;8.372;2023-05-07T13:50:22;26.50;98.20
14995;DHT22;7593;49.006;8.372;2023-05-07T13:52:51;26.50;98.60
14995;DHT22;7593;49.006;8.372;2023-05-07T13:55:18;26.70;98.00
14995;DHT22;7593;49.006;8.372;2023-05-07T13:57:46;26.60;97.40
14995;DHT22;7593;49.006;8.372;2023-05-07T14:00:13;26.50;97.50
14995;DHT22;7593;49.006;8.372;2023-05-07T14:02:43;26.00;97.10
14995;DHT22;7593;49.006;8.372;2023-05-07T14:05:10;25.80;97.80
14995;DHT22;7593;49.006;8.372;2023-05-07T14:07:37;25.70;98.30
14995;DHT22;7593;49.006;8.372;2023-05-07T14:10:04;25.30;98.70
14995;DHT22;7593;49.006;8.372;2023-05-07T14:12:32;25.10;99.40
14995;DHT22;7593;49.006;8.372;2023-05-07T14:14:59;24.80;99.90
14995;DHT22;7593;49.006;8.372;2023-05-07T14:17:26;24.40;99.90
14995;DHT22;7593;49.006;8.372;2023-05-07T14:19:54;24.40;99.90
14995;DHT22;7593;49.006;8.372;2023-05-07T14:22:21;24.20;99.90
14995;DHT22;7593;49.006;8.372;2023-05-07T14:24:49;24.20;99.90
14995;DHT22;7593;49.006;8.372;2023-05-07T14:27:17;24.00;99.90
14995;DHT22;7593;49.006;8.372;2023-05-07T14:29:44;23.90;99.90
14995;DHT22;7593;49.006;8.372;2023-05-07T14:32:11;23.70;99.90
14995;DHT22;7593;49.006;8.372;2023-05-07T14:34:38;23.80;99.90
14995;DHT22;7593;49.006;8.372;2023-05-07T14:37:07;23.80;99.90
14995;DHT22;7593;49.006;8.372;2023-05-07T14:39:34;23.80;99.90
14995;DHT22;7593;49.006;8.372;2023-05-07T14:42:01;23.90;99.90
14995;DHT22;7593;49.006;8.372;2023-05-07T14:44:27;24.20;99.90
14995;DHT22;7593;49.006;8.372;2023-05-07T14:46:54;24.50;99.90
14995;DHT22;7593;49.006;8.372;2023-05-07T14:49:22;24.80;99.60
14995;DHT22;7593;49.006;8.372;2023-05-07T14:51:49;25.00;99.00
14995;DHT22;7593;49.006;8.372;2023-05-07T14:54:17;25.30;98.50
14995;DHT22;7593;49.006;8.372;2023-05-07T14:56:44;25.60;96.90
14995;DHT22;7593;49.006;8.372;2023-05-07T14:59:11;25.10;97.80
14995;DHT22;7593;49.006;8.372;2023-05-07T15:01:38;24.80;98.10
14995;DHT22;7593;49.006;8.372;2023-05-07T15:04:09;24.30;98.50
14995;DHT22;7593;49.006;8.372;2023-05-07T15:06:36;24.00;99.10
14995;DHT22;7593;49.006;8.372;2023-05-07T15:09:03;23.70;99.50
14995;DHT22;7593;49.006;8.372;2023-05-07T15:11:31;23.60;99.90
14995;DHT22;7593;49.006;8.372;2023-05-07T15:13:58;23.70;99.90
14995;DHT22;7593;49.006;8.372;2023-05-07T15:16:26;23.70;99.90
14995;DHT22;7593;49.006;8.372;2023-05-07T15:18:56;23.70;99.90
14995;DHT22;7593;49.006;8.372;2023-05-07T15:21:31;23.60;99.90
14995;DHT22;7593;49.006;8.372;2023-05-07T15:24:02;23.60;99.90
14995;DHT22;7593;49.006;8.372;2023-05-07T15:26:30;23.60;99.90
14995;DHT22;7593;49.006;8.372;2023-05-07T15:28:58;23.40;99.90
14995;DHT22;7593;49.006;8.372;2023-05-07T15:31:25;23.20;99.90
14995;DHT22;7593;49.006;8.372;2023-05-07T15:33:55;23.00;99.90
14995;DHT22;7593;49.006;8.372;2023-05-07T15:36:22;22.90;99.90
14995;DHT22;7593;49.006;8.372;2023-05-07T15:38:52;22.80;99.90
14995;DHT22;7593;49.006;8.372;2023-05-07T15:41:22;22.70;99.90
14995;DHT22;7593;49.006;8.372;2023-05-07T15:43:51;22.80;99.90
14995;DHT22;7593;49.006;8.372;2023-05-07T15:46:22;22.90;99.90
14995;DHT22;7593;49.006;8.372;2023-05-07T15:48:50;22.80;99.90
14995;DHT22;7593;49.006;8.372;2023-05-07T15:51:17;22.90;99.90
14995;DHT22;7593;49.006;8.372;2023-05-07T15:53:44;22.70;99.90